powered by Meteolive.it
Dati meteo   Attuali  Passati Ogni 3 ore 7 Giorni 15 Giorni Avvisi Meteo Mappe meteo
Roma / Urbe, Italy
Alba: 6:27 AM UTC1
Tramonto: 5:19 PM UTC1
 Lat: 41.95N, Lon: 12.50E
ICAO Usato: LIRU
Condizioni Meteo Attuali Aggiornate: 21.10.2017 alle 10:50 LT
Foschia
Foschia
Sereno
Foschia
Temp: 10°C
Umidita': 100%
Direz/Vel. Vento: variabile 02 KTS raffiche
Pressione: 1022 hPa
Punto di rugiada: 10°C
Temperatura percepita: 9°C
Visibilitą: 5000 m.
Temperatura percepita in
presenza di vento (Wind Chill)
:
N/D
T. max (ultime 24 ore): 8°C
T. min (ultime 24 ore): 8°C


METAR ORIGINALE
LIRU 210650Z VRB02KT 5000 BR NSC 10/10 Q1022